Startpagina
METAR-TAF:

METAR-TAF

Vliegvelden :

Teheran, Iran

Teheran Mehrabad International Airport

breedte: 35-41N, lengte: 051-21E, hoogte: 1204 m

Actueel weer

Dit bericht is 29 minuten geleden gemaakt, om 01:30 UTC
Wind 6 kt uit het westen
Temperatuur 22°C
Vochtigheid 15%
Druk 1014 hPa
Zicht 10 km of meer
geen wolken onder 1500 m en geen cumulonimbus

METAR: OIII 290130Z 28006KT CAVOK 22/M06 Q1014 A2995 NOSIG

Tijdstip: 06:29 (01:59 UTC)

Verwachting

Dit bericht is 2 uur en het 59 minuten geleden gemaakt, om 23:00 UTC
Verwachting geldig van 29 om 00 UTC tot 30 om 06 UTC
Wind 17 kt uit het noordwesten
Zicht: 7000 m
Tijdelijke
van 29 om 09 UTC tot 29 om 18 UTC
Wind 17 kt uit het westnoordwesten met uitschieters tot 29 kt
Zicht: 3000 m
zand

TAF: OIII 282300Z 2900/3006 32009MPS 7000 NSC TEMPO 2909/2918 30009G15MPS 3000 SA

Waarnemingen en weersverwachtingen van meer dan 4000 vliegvelden (METAR en TAF).

De beschikbare stations zijn de gele en rode punten op de kaart.

Ga met uw muis naar het station om de naam te zien.

Klik dan om waarnemingen en weersverwachtingen te zien.

kaart wijzigen: klik op de groene knoppen met een zwart kruis om in te zoomen, op de groene knop met een streepje om uit te zoomen of op de groene pijlen voor aangrenzende kaarten.


METAR-TAF: